sensor_id;sensor_type;location;lat;lon;timestamp;P1;durP1;ratioP1;P2;durP2;ratioP2
27357;SDS011;14831;50.474;7.616;2022-09-12T00:04:58;12.6;;;10.2;;
27357;SDS011;14831;50.474;7.616;2022-09-12T00:09:58;12.6;;;10.2;;
27357;SDS011;14831;50.474;7.616;2022-09-12T00:14:58;12.6;;;10.2;;
27357;SDS011;14831;50.474;7.616;2022-09-12T00:19:58;11.2;;;8.7;;
27357;SDS011;14831;50.474;7.616;2022-09-12T00:24:58;11.2;;;8.7;;
27357;SDS011;14831;50.474;7.616;2022-09-12T00:29:58;11.2;;;8.7;;
27357;SDS011;14831;50.474;7.616;2022-09-12T00:34:58;11.2;;;8.7;;
27357;SDS011;14831;50.474;7.616;2022-09-12T00:39:58;11.2;;;8.7;;
27357;SDS011;14831;50.474;7.616;2022-09-12T00:44:58;11.2;;;8.7;;
27357;SDS011;14831;50.474;7.616;2022-09-12T00:50:02;10.8;;;8.6;;
27357;SDS011;14831;50.474;7.616;2022-09-12T00:55:02;10.8;;;8.6;;
27357;SDS011;14831;50.474;7.616;2022-09-12T01:00:02;10.8;;;8.6;;
27357;SDS011;14831;50.474;7.616;2022-09-12T01:04:58;10.8;;;8.6;;
27357;SDS011;14831;50.474;7.616;2022-09-12T01:09:58;10.8;;;8.6;;
27357;SDS011;14831;50.474;7.616;2022-09-12T01:14:58;10.8;;;8.6;;
27357;SDS011;14831;50.474;7.616;2022-09-12T01:21:13;10.2;;;8.8;;
27357;SDS011;14831;50.474;7.616;2022-09-12T01:25:07;10.2;;;8.8;;
27357;SDS011;14831;50.474;7.616;2022-09-12T01:35:06;10.2;;;8.8;;
27357;SDS011;14831;50.474;7.616;2022-09-12T01:40:02;10.2;;;8.8;;
27357;SDS011;14831;50.474;7.616;2022-09-12T01:45:05;10.2;;;8.8;;
27357;SDS011;14831;50.474;7.616;2022-09-12T01:50:02;8.8;;;7.8;;
27357;SDS011;14831;50.474;7.616;2022-09-12T01:55:04;8.8;;;7.8;;
27357;SDS011;14831;50.474;7.616;2022-09-12T02:00:03;8.8;;;7.8;;
27357;SDS011;14831;50.474;7.616;2022-09-12T02:05:02;8.8;;;7.8;;
27357;SDS011;14831;50.474;7.616;2022-09-12T02:10:04;8.8;;;7.8;;
27357;SDS011;14831;50.474;7.616;2022-09-12T02:15:01;8.8;;;7.8;;
27357;SDS011;14831;50.474;7.616;2022-09-12T02:20:04;10.3;;;8.4;;
27357;SDS011;14831;50.474;7.616;2022-09-12T02:24:59;10.3;;;8.4;;
27357;SDS011;14831;50.474;7.616;2022-09-12T02:29:59;10.3;;;8.4;;
27357;SDS011;14831;50.474;7.616;2022-09-12T02:35:01;10.3;;;8.4;;
27357;SDS011;14831;50.474;7.616;2022-09-12T02:39:58;10.3;;;8.4;;
27357;SDS011;14831;50.474;7.616;2022-09-12T02:44:58;10.3;;;8.4;;
27357;SDS011;14831;50.474;7.616;2022-09-12T02:49:58;10.5;;;8.3;;
27357;SDS011;14831;50.474;7.616;2022-09-12T02:54:58;10.5;;;8.3;;
27357;SDS011;14831;50.474;7.616;2022-09-12T03:00:00;10.5;;;8.3;;
27357;SDS011;14831;50.474;7.616;2022-09-12T03:05:12;10.5;;;8.3;;
27357;SDS011;14831;50.474;7.616;2022-09-12T03:10:04;10.5;;;8.3;;
27357;SDS011;14831;50.474;7.616;2022-09-12T03:15:09;10.5;;;8.3;;
27357;SDS011;14831;50.474;7.616;2022-09-12T03:20:01;9.9;;;8.1;;
27357;SDS011;14831;50.474;7.616;2022-09-12T03:25:03;9.9;;;8.1;;
27357;SDS011;14831;50.474;7.616;2022-09-12T03:29:59;9.9;;;8.1;;
27357;SDS011;14831;50.474;7.616;2022-09-12T03:34:58;9.9;;;8.1;;
27357;SDS011;14831;50.474;7.616;2022-09-12T03:39:58;9.9;;;8.1;;
27357;SDS011;14831;50.474;7.616;2022-09-12T03:44:58;9.9;;;8.1;;
27357;SDS011;14831;50.474;7.616;2022-09-12T03:49:58;11.4;;;8.7;;
27357;SDS011;14831;50.474;7.616;2022-09-12T03:54:58;11.4;;;8.7;;
27357;SDS011;14831;50.474;7.616;2022-09-12T03:59:58;11.4;;;8.7;;
27357;SDS011;14831;50.474;7.616;2022-09-12T04:04:58;11.4;;;8.7;;
27357;SDS011;14831;50.474;7.616;2022-09-12T04:09:59;11.4;;;8.7;;
27357;SDS011;14831;50.474;7.616;2022-09-12T04:14:58;11.4;;;8.7;;
27357;SDS011;14831;50.474;7.616;2022-09-12T04:19:58;10.1;;;7.4;;
27357;SDS011;14831;50.474;7.616;2022-09-12T04:24:58;10.1;;;7.4;;
27357;SDS011;14831;50.474;7.616;2022-09-12T04:29:59;10.1;;;7.4;;
27357;SDS011;14831;50.474;7.616;2022-09-12T04:34:58;10.1;;;7.4;;
27357;SDS011;14831;50.474;7.616;2022-09-12T04:39:58;10.1;;;7.4;;
27357;SDS011;14831;50.474;7.616;2022-09-12T04:44:58;10.1;;;7.4;;
27357;SDS011;14831;50.474;7.616;2022-09-12T04:49:58;19.6;;;13.0;;
27357;SDS011;14831;50.474;7.616;2022-09-12T04:54:58;19.6;;;13.0;;
27357;SDS011;14831;50.474;7.616;2022-09-12T04:59:58;19.6;;;13.0;;
27357;SDS011;14831;50.474;7.616;2022-09-12T05:04:58;19.6;;;13.0;;
27357;SDS011;14831;50.474;7.616;2022-09-12T05:09:58;19.6;;;13.0;;
27357;SDS011;14831;50.474;7.616;2022-09-12T05:14:58;19.6;;;13.0;;
27357;SDS011;14831;50.474;7.616;2022-09-12T05:19:58;6.1;;;4.9;;
27357;SDS011;14831;50.474;7.616;2022-09-12T05:24:58;6.1;;;4.9;;
27357;SDS011;14831;50.474;7.616;2022-09-12T05:29:58;6.1;;;4.9;;
27357;SDS011;14831;50.474;7.616;2022-09-12T05:34:58;6.1;;;4.9;;
27357;SDS011;14831;50.474;7.616;2022-09-12T05:39:58;6.1;;;4.9;;
27357;SDS011;14831;50.474;7.616;2022-09-12T05:44:58;6.1;;;4.9;;
27357;SDS011;14831;50.474;7.616;2022-09-12T05:49:58;5.6;;;4.4;;
27357;SDS011;14831;50.474;7.616;2022-09-12T05:54:58;5.6;;;4.4;;
27357;SDS011;14831;50.474;7.616;2022-09-12T05:59:58;5.6;;;4.4;;
27357;SDS011;14831;50.474;7.616;2022-09-12T06:04:58;5.6;;;4.4;;
27357;SDS011;14831;50.474;7.616;2022-09-12T06:09:58;5.6;;;4.4;;
27357;SDS011;14831;50.474;7.616;2022-09-12T06:14:58;5.6;;;4.4;;
27357;SDS011;14831;50.474;7.616;2022-09-12T06:19:58;5.6;;;4.5;;
27357;SDS011;14831;50.474;7.616;2022-09-12T06:24:58;5.6;;;4.5;;
27357;SDS011;14831;50.474;7.616;2022-09-12T06:29:58;5.6;;;4.5;;
27357;SDS011;14831;50.474;7.616;2022-09-12T06:34:58;5.6;;;4.5;;
27357;SDS011;14831;50.474;7.616;2022-09-12T06:39:58;5.6;;;4.5;;
27357;SDS011;14831;50.474;7.616;2022-09-12T06:44:58;5.6;;;4.5;;
27357;SDS011;14831;50.474;7.616;2022-09-12T06:49:58;7.9;;;4.4;;
27357;SDS011;14831;50.474;7.616;2022-09-12T06:54:58;7.9;;;4.4;;
27357;SDS011;14831;50.474;7.616;2022-09-12T06:59:58;7.9;;;4.4;;
27357;SDS011;14831;50.474;7.616;2022-09-12T07:04:58;7.9;;;4.4;;
27357;SDS011;14831;50.474;7.616;2022-09-12T07:09:58;7.9;;;4.4;;
27357;SDS011;14831;50.474;7.616;2022-09-12T07:14:58;7.9;;;4.4;;
27357;SDS011;14831;50.474;7.616;2022-09-12T07:19:58;5.6;;;3.6;;
27357;SDS011;14831;50.474;7.616;2022-09-12T07:24:58;5.6;;;3.6;;
27357;SDS011;14831;50.474;7.616;2022-09-12T07:29:58;5.6;;;3.6;;
27357;SDS011;14831;50.474;7.616;2022-09-12T07:34:58;5.6;;;3.6;;
27357;SDS011;14831;50.474;7.616;2022-09-12T07:39:58;5.6;;;3.6;;
27357;SDS011;14831;50.474;7.616;2022-09-12T07:44:58;5.6;;;3.6;;
27357;SDS011;14831;50.474;7.616;2022-09-12T07:49:58;3.6;;;3.3;;
27357;SDS011;14831;50.474;7.616;2022-09-12T07:54:58;3.6;;;3.3;;
27357;SDS011;14831;50.474;7.616;2022-09-12T07:59:58;3.6;;;3.3;;
27357;SDS011;14831;50.474;7.616;2022-09-12T08:04:58;3.6;;;3.3;;
27357;SDS011;14831;50.474;7.616;2022-09-12T08:09:58;3.6;;;3.3;;
27357;SDS011;14831;50.474;7.616;2022-09-12T08:14:58;3.6;;;3.3;;
27357;SDS011;14831;50.474;7.616;2022-09-12T08:19:58;3.5;;;3.2;;
27357;SDS011;14831;50.474;7.616;2022-09-12T08:24:58;3.5;;;3.2;;
27357;SDS011;14831;50.474;7.616;2022-09-12T08:29:58;3.5;;;3.2;;
27357;SDS011;14831;50.474;7.616;2022-09-12T08:34:58;3.5;;;3.2;;
27357;SDS011;14831;50.474;7.616;2022-09-12T08:39:58;3.5;;;3.2;;
27357;SDS011;14831;50.474;7.616;2022-09-12T08:45:12;3.5;;;3.2;;
27357;SDS011;14831;50.474;7.616;2022-09-12T08:50:03;3.9;;;3.2;;
27357;SDS011;14831;50.474;7.616;2022-09-12T08:54:59;3.9;;;3.2;;
27357;SDS011;14831;50.474;7.616;2022-09-12T08:59:58;3.9;;;3.2;;
27357;SDS011;14831;50.474;7.616;2022-09-12T09:05:04;3.9;;;3.2;;
27357;SDS011;14831;50.474;7.616;2022-09-12T09:10:07;3.9;;;3.2;;
27357;SDS011;14831;50.474;7.616;2022-09-12T09:15:09;3.9;;;3.2;;
27357;SDS011;14831;50.474;7.616;2022-09-12T09:20:04;3.0;;;2.8;;
27357;SDS011;14831;50.474;7.616;2022-09-12T09:25:03;3.0;;;2.8;;
27357;SDS011;14831;50.474;7.616;2022-09-12T09:29:58;3.0;;;2.8;;
27357;SDS011;14831;50.474;7.616;2022-09-12T09:35:14;3.0;;;2.8;;
27357;SDS011;14831;50.474;7.616;2022-09-12T09:40:03;3.0;;;2.8;;
27357;SDS011;14831;50.474;7.616;2022-09-12T09:45:00;3.0;;;2.8;;
27357;SDS011;14831;50.474;7.616;2022-09-12T09:49:58;3.3;;;2.8;;
27357;SDS011;14831;50.474;7.616;2022-09-12T09:55:00;3.3;;;2.8;;
27357;SDS011;14831;50.474;7.616;2022-09-12T09:59:58;3.3;;;2.8;;
27357;SDS011;14831;50.474;7.616;2022-09-12T10:04:58;3.3;;;2.8;;
27357;SDS011;14831;50.474;7.616;2022-09-12T10:10:14;3.3;;;2.8;;
27357;SDS011;14831;50.474;7.616;2022-09-12T10:14:59;3.3;;;2.8;;
27357;SDS011;14831;50.474;7.616;2022-09-12T10:19:58;2.8;;;2.6;;
27357;SDS011;14831;50.474;7.616;2022-09-12T10:24:59;2.8;;;2.6;;
27357;SDS011;14831;50.474;7.616;2022-09-12T10:30:01;2.8;;;2.6;;
27357;SDS011;14831;50.474;7.616;2022-09-12T10:35:00;2.8;;;2.6;;
27357;SDS011;14831;50.474;7.616;2022-09-12T10:39:59;2.8;;;2.6;;
27357;SDS011;14831;50.474;7.616;2022-09-12T10:44:58;2.8;;;2.6;;
27357;SDS011;14831;50.474;7.616;2022-09-12T10:50:19;3.0;;;2.7;;
27357;SDS011;14831;50.474;7.616;2022-09-12T10:54:58;3.0;;;2.7;;
27357;SDS011;14831;50.474;7.616;2022-09-12T11:00:06;3.0;;;2.7;;
27357;SDS011;14831;50.474;7.616;2022-09-12T11:05:03;3.0;;;2.7;;
27357;SDS011;14831;50.474;7.616;2022-09-12T11:10:05;3.0;;;2.7;;
27357;SDS011;14831;50.474;7.616;2022-09-12T11:15:11;3.0;;;2.7;;
27357;SDS011;14831;50.474;7.616;2022-09-12T11:20:12;3.1;;;2.7;;
27357;SDS011;14831;50.474;7.616;2022-09-12T11:25:26;3.1;;;2.7;;
27357;SDS011;14831;50.474;7.616;2022-09-12T11:30:02;3.1;;;2.7;;
27357;SDS011;14831;50.474;7.616;2022-09-12T11:35:05;3.1;;;2.7;;
27357;SDS011;14831;50.474;7.616;2022-09-12T11:40:04;3.1;;;2.7;;
27357;SDS011;14831;50.474;7.616;2022-09-12T11:45:02;3.1;;;2.7;;
27357;SDS011;14831;50.474;7.616;2022-09-12T11:49:58;3.0;;;2.6;;
27357;SDS011;14831;50.474;7.616;2022-09-12T11:55:01;3.0;;;2.6;;
27357;SDS011;14831;50.474;7.616;2022-09-12T12:00:03;3.0;;;2.6;;
27357;SDS011;14831;50.474;7.616;2022-09-12T12:05:04;3.0;;;2.6;;
27357;SDS011;14831;50.474;7.616;2022-09-12T12:09:58;3.0;;;2.6;;
27357;SDS011;14831;50.474;7.616;2022-09-12T12:14:59;3.0;;;2.6;;
27357;SDS011;14831;50.474;7.616;2022-09-12T12:20:00;3.5;;;2.4;;
27357;SDS011;14831;50.474;7.616;2022-09-12T12:25:05;3.5;;;2.4;;
27357;SDS011;14831;50.474;7.616;2022-09-12T12:29:58;3.5;;;2.4;;
27357;SDS011;14831;50.474;7.616;2022-09-12T12:36:07;3.5;;;2.4;;
27357;SDS011;14831;50.474;7.616;2022-09-12T12:40:00;3.5;;;2.4;;
27357;SDS011;14831;50.474;7.616;2022-09-12T12:44:58;3.5;;;2.4;;
27357;SDS011;14831;50.474;7.616;2022-09-12T12:50:02;2.7;;;2.5;;
27357;SDS011;14831;50.474;7.616;2022-09-12T12:54:59;2.7;;;2.5;;
27357;SDS011;14831;50.474;7.616;2022-09-12T13:00:00;2.7;;;2.5;;
27357;SDS011;14831;50.474;7.616;2022-09-12T13:05:01;2.7;;;2.5;;
27357;SDS011;14831;50.474;7.616;2022-09-12T13:09:59;2.7;;;2.5;;
27357;SDS011;14831;50.474;7.616;2022-09-12T13:14:59;2.7;;;2.5;;
27357;SDS011;14831;50.474;7.616;2022-09-12T13:20:05;2.8;;;2.5;;
27357;SDS011;14831;50.474;7.616;2022-09-12T13:24:58;2.8;;;2.5;;
27357;SDS011;14831;50.474;7.616;2022-09-12T13:30:06;2.8;;;2.5;;
27357;SDS011;14831;50.474;7.616;2022-09-12T13:35:06;2.8;;;2.5;;
27357;SDS011;14831;50.474;7.616;2022-09-12T13:40:11;2.8;;;2.5;;
27357;SDS011;14831;50.474;7.616;2022-09-12T13:45:02;2.8;;;2.5;;
27357;SDS011;14831;50.474;7.616;2022-09-12T13:49:59;2.7;;;2.5;;
27357;SDS011;14831;50.474;7.616;2022-09-12T13:54:58;2.7;;;2.5;;
27357;SDS011;14831;50.474;7.616;2022-09-12T13:59:59;2.7;;;2.5;;
27357;SDS011;14831;50.474;7.616;2022-09-12T14:04:58;2.7;;;2.5;;
27357;SDS011;14831;50.474;7.616;2022-09-12T14:09:59;2.7;;;2.5;;
27357;SDS011;14831;50.474;7.616;2022-09-12T14:14:58;2.7;;;2.5;;
27357;SDS011;14831;50.474;7.616;2022-09-12T14:20:00;3.1;;;2.8;;
27357;SDS011;14831;50.474;7.616;2022-09-12T14:24:58;3.1;;;2.8;;
27357;SDS011;14831;50.474;7.616;2022-09-12T14:30:02;3.1;;;2.8;;
27357;SDS011;14831;50.474;7.616;2022-09-12T14:35:17;3.1;;;2.8;;
27357;SDS011;14831;50.474;7.616;2022-09-12T14:39:58;3.1;;;2.8;;
27357;SDS011;14831;50.474;7.616;2022-09-12T14:45:01;3.1;;;2.8;;
27357;SDS011;14831;50.474;7.616;2022-09-12T14:49:58;2.4;;;2.2;;
27357;SDS011;14831;50.474;7.616;2022-09-12T14:54:59;2.4;;;2.2;;
27357;SDS011;14831;50.474;7.616;2022-09-12T15:00:15;2.4;;;2.2;;
27357;SDS011;14831;50.474;7.616;2022-09-12T15:05:17;2.4;;;2.2;;
27357;SDS011;14831;50.474;7.616;2022-09-12T15:10:00;2.4;;;2.2;;
27357;SDS011;14831;50.474;7.616;2022-09-12T15:15:03;2.4;;;2.2;;
27357;SDS011;14831;50.474;7.616;2022-09-12T15:19:58;2.5;;;2.1;;
27357;SDS011;14831;50.474;7.616;2022-09-12T15:24:58;2.5;;;2.1;;
27357;SDS011;14831;50.474;7.616;2022-09-12T15:29:58;2.5;;;2.1;;
27357;SDS011;14831;50.474;7.616;2022-09-12T15:34:58;2.5;;;2.1;;
27357;SDS011;14831;50.474;7.616;2022-09-12T15:39:58;2.5;;;2.1;;
27357;SDS011;14831;50.474;7.616;2022-09-12T15:44:58;2.5;;;2.1;;
27357;SDS011;14831;50.474;7.616;2022-09-12T15:49:58;3.0;;;2.3;;
27357;SDS011;14831;50.474;7.616;2022-09-12T15:54:58;3.0;;;2.3;;
27357;SDS011;14831;50.474;7.616;2022-09-12T15:59:58;3.0;;;2.3;;
27357;SDS011;14831;50.474;7.616;2022-09-12T16:04:58;3.0;;;2.3;;
27357;SDS011;14831;50.474;7.616;2022-09-12T16:09:58;3.0;;;2.3;;
27357;SDS011;14831;50.474;7.616;2022-09-12T16:14:58;3.0;;;2.3;;
27357;SDS011;14831;50.474;7.616;2022-09-12T16:19:58;2.8;;;2.1;;
27357;SDS011;14831;50.474;7.616;2022-09-12T16:24:58;2.8;;;2.1;;
27357;SDS011;14831;50.474;7.616;2022-09-12T16:29:58;2.8;;;2.1;;
27357;SDS011;14831;50.474;7.616;2022-09-12T16:34:58;2.8;;;2.1;;
27357;SDS011;14831;50.474;7.616;2022-09-12T16:39:58;2.8;;;2.1;;
27357;SDS011;14831;50.474;7.616;2022-09-12T16:44:58;2.8;;;2.1;;
27357;SDS011;14831;50.474;7.616;2022-09-12T16:49:58;3.8;;;2.3;;
27357;SDS011;14831;50.474;7.616;2022-09-12T16:54:58;3.8;;;2.3;;
27357;SDS011;14831;50.474;7.616;2022-09-12T16:59:58;3.8;;;2.3;;
27357;SDS011;14831;50.474;7.616;2022-09-12T17:04:58;3.8;;;2.3;;
27357;SDS011;14831;50.474;7.616;2022-09-12T17:09:58;3.8;;;2.3;;
27357;SDS011;14831;50.474;7.616;2022-09-12T17:14:58;3.8;;;2.3;;
27357;SDS011;14831;50.474;7.616;2022-09-12T17:19:58;2.1;;;2.0;;
27357;SDS011;14831;50.474;7.616;2022-09-12T17:24:58;2.1;;;2.0;;
27357;SDS011;14831;50.474;7.616;2022-09-12T17:29:58;2.1;;;2.0;;
27357;SDS011;14831;50.474;7.616;2022-09-12T17:34:58;2.1;;;2.0;;
27357;SDS011;14831;50.474;7.616;2022-09-12T17:39:58;2.1;;;2.0;;
27357;SDS011;14831;50.474;7.616;2022-09-12T17:44:58;2.1;;;2.0;;
27357;SDS011;14831;50.474;7.616;2022-09-12T17:49:58;2.1;;;1.8;;
27357;SDS011;14831;50.474;7.616;2022-09-12T17:54:58;2.1;;;1.8;;
27357;SDS011;14831;50.474;7.616;2022-09-12T17:59:58;2.1;;;1.8;;
27357;SDS011;14831;50.474;7.616;2022-09-12T18:04:58;2.1;;;1.8;;
27357;SDS011;14831;50.474;7.616;2022-09-12T18:09:58;2.1;;;1.8;;
27357;SDS011;14831;50.474;7.616;2022-09-12T18:14:58;2.1;;;1.8;;
27357;SDS011;14831;50.474;7.616;2022-09-12T18:19:58;2.5;;;2.3;;
27357;SDS011;14831;50.474;7.616;2022-09-12T18:24:58;2.5;;;2.3;;
27357;SDS011;14831;50.474;7.616;2022-09-12T18:29:58;2.5;;;2.3;;
27357;SDS011;14831;50.474;7.616;2022-09-12T18:34:58;2.5;;;2.3;;
27357;SDS011;14831;50.474;7.616;2022-09-12T18:39:58;2.5;;;2.3;;
27357;SDS011;14831;50.474;7.616;2022-09-12T18:44:58;2.5;;;2.3;;
27357;SDS011;14831;50.474;7.616;2022-09-12T18:49:58;2.3;;;2.1;;
27357;SDS011;14831;50.474;7.616;2022-09-12T18:54:58;2.3;;;2.1;;
27357;SDS011;14831;50.474;7.616;2022-09-12T18:59:58;2.3;;;2.1;;
27357;SDS011;14831;50.474;7.616;2022-09-12T19:04:58;2.3;;;2.1;;
27357;SDS011;14831;50.474;7.616;2022-09-12T19:09:58;2.3;;;2.1;;
27357;SDS011;14831;50.474;7.616;2022-09-12T19:14:58;2.3;;;2.1;;
27357;SDS011;14831;50.474;7.616;2022-09-12T19:19:58;2.3;;;1.9;;
27357;SDS011;14831;50.474;7.616;2022-09-12T19:24:58;2.3;;;1.9;;
27357;SDS011;14831;50.474;7.616;2022-09-12T19:29:58;2.3;;;1.9;;
27357;SDS011;14831;50.474;7.616;2022-09-12T19:34:58;2.3;;;1.9;;
27357;SDS011;14831;50.474;7.616;2022-09-12T19:39:58;2.3;;;1.9;;
27357;SDS011;14831;50.474;7.616;2022-09-12T19:44:58;2.3;;;1.9;;
27357;SDS011;14831;50.474;7.616;2022-09-12T19:49:58;3.6;;;2.3;;
27357;SDS011;14831;50.474;7.616;2022-09-12T19:54:58;3.6;;;2.3;;
27357;SDS011;14831;50.474;7.616;2022-09-12T19:59:58;3.6;;;2.3;;
27357;SDS011;14831;50.474;7.616;2022-09-12T20:04:58;3.6;;;2.3;;
27357;SDS011;14831;50.474;7.616;2022-09-12T20:09:58;3.6;;;2.3;;
27357;SDS011;14831;50.474;7.616;2022-09-12T20:14:58;3.6;;;2.3;;
27357;SDS011;14831;50.474;7.616;2022-09-12T20:19:58;2.2;;;1.9;;
27357;SDS011;14831;50.474;7.616;2022-09-12T20:24:58;2.2;;;1.9;;
27357;SDS011;14831;50.474;7.616;2022-09-12T20:29:58;2.2;;;1.9;;
27357;SDS011;14831;50.474;7.616;2022-09-12T20:34:58;2.2;;;1.9;;
27357;SDS011;14831;50.474;7.616;2022-09-12T20:39:58;2.2;;;1.9;;
27357;SDS011;14831;50.474;7.616;2022-09-12T20:44:58;2.2;;;1.9;;
27357;SDS011;14831;50.474;7.616;2022-09-12T20:49:58;2.0;;;1.9;;
27357;SDS011;14831;50.474;7.616;2022-09-12T20:54:58;2.0;;;1.9;;
27357;SDS011;14831;50.474;7.616;2022-09-12T20:59:58;2.0;;;1.9;;
27357;SDS011;14831;50.474;7.616;2022-09-12T21:04:58;2.0;;;1.9;;
27357;SDS011;14831;50.474;7.616;2022-09-12T21:09:58;2.0;;;1.9;;
27357;SDS011;14831;50.474;7.616;2022-09-12T21:14:58;2.0;;;1.9;;
27357;SDS011;14831;50.474;7.616;2022-09-12T21:19:58;1.7;;;1.6;;
27357;SDS011;14831;50.474;7.616;2022-09-12T21:24:58;1.7;;;1.6;;
27357;SDS011;14831;50.474;7.616;2022-09-12T21:29:58;1.7;;;1.6;;
27357;SDS011;14831;50.474;7.616;2022-09-12T21:34:58;1.7;;;1.6;;
27357;SDS011;14831;50.474;7.616;2022-09-12T21:39:58;1.7;;;1.6;;
27357;SDS011;14831;50.474;7.616;2022-09-12T21:44:58;1.7;;;1.6;;
27357;SDS011;14831;50.474;7.616;2022-09-12T21:49:58;1.7;;;1.6;;
27357;SDS011;14831;50.474;7.616;2022-09-12T21:54:58;1.7;;;1.6;;
27357;SDS011;14831;50.474;7.616;2022-09-12T21:59:58;1.7;;;1.6;;
27357;SDS011;14831;50.474;7.616;2022-09-12T22:04:58;1.7;;;1.6;;
27357;SDS011;14831;50.474;7.616;2022-09-12T22:09:58;1.7;;;1.6;;
27357;SDS011;14831;50.474;7.616;2022-09-12T22:14:58;1.7;;;1.6;;
27357;SDS011;14831;50.474;7.616;2022-09-12T22:19:58;1.7;;;1.6;;
27357;SDS011;14831;50.474;7.616;2022-09-12T22:24:58;1.7;;;1.6;;
27357;SDS011;14831;50.474;7.616;2022-09-12T22:29:58;1.7;;;1.6;;
27357;SDS011;14831;50.474;7.616;2022-09-12T22:34:58;1.7;;;1.6;;
27357;SDS011;14831;50.474;7.616;2022-09-12T22:39:58;1.7;;;1.6;;
27357;SDS011;14831;50.474;7.616;2022-09-12T22:44:58;1.7;;;1.6;;
27357;SDS011;14831;50.474;7.616;2022-09-12T22:49:58;1.5;;;1.4;;
27357;SDS011;14831;50.474;7.616;2022-09-12T22:54:58;1.5;;;1.4;;
27357;SDS011;14831;50.474;7.616;2022-09-12T22:59:58;1.5;;;1.4;;
27357;SDS011;14831;50.474;7.616;2022-09-12T23:04:58;1.5;;;1.4;;
27357;SDS011;14831;50.474;7.616;2022-09-12T23:09:58;1.5;;;1.4;;
27357;SDS011;14831;50.474;7.616;2022-09-12T23:14:58;1.5;;;1.4;;
27357;SDS011;14831;50.474;7.616;2022-09-12T23:19:58;1.6;;;1.5;;
27357;SDS011;14831;50.474;7.616;2022-09-12T23:24:58;1.6;;;1.5;;
27357;SDS011;14831;50.474;7.616;2022-09-12T23:29:58;1.6;;;1.5;;
27357;SDS011;14831;50.474;7.616;2022-09-12T23:34:58;1.6;;;1.5;;
27357;SDS011;14831;50.474;7.616;2022-09-12T23:39:58;1.6;;;1.5;;
27357;SDS011;14831;50.474;7.616;2022-09-12T23:44:58;1.6;;;1.5;;
27357;SDS011;14831;50.474;7.616;2022-09-12T23:49:58;1.4;;;1.3;;
27357;SDS011;14831;50.474;7.616;2022-09-12T23:54:58;1.4;;;1.3;;
27357;SDS011;14831;50.474;7.616;2022-09-12T23:59:58;1.4;;;1.3;;
